Latest Weather Observations for Rolleston Airport

IDQ60801

Issued at 11:02 pm EST Tuesday 21 April 2015 (issued every 30 minutes, with the page automatically refreshed every 10 minutes)

About weather observations | Map of weather stations | Latest weather observations for QLD | Other Formats
Station Details ID: 035129 Name: ROLLESTON AIRPORT Lat: -24.46 Lon: 148.63 Height: 219.45 m
Data from the previous 72 hours. | See also: Recent months at Rolleston Airport
Date/Time
EST
Temp
°C
App
Temp
°C
Dew
Point
Rel
Hum
%
Delta-T
°C
Wind Press
QNH
hPa
Press
MSL
hPa
Rain
since 9 am
mm
Dir
 
Spd
km/h
Gust
km/h
Spd
kts
Gust
kts
21/11:00pm 10.1 7.9 6.3 77 1.8 SE 7 7 4 4 1018.8 1017.9 0.0
21/10:30pm 10.7 8.1 6.3 74 2.1 SSE 9 9 5 5 1018.9 1018.0 0.0
21/10:00pm 11.1 8.5 6.3 72 2.3 SE 9 9 5 5 1019.1 1018.2 0.0
21/09:30pm 11.7 9.1 6.2 69 2.6 SSE 9 11 5 6 1019.1 1018.2 0.0
21/09:00pm 12.1 9.6 6.4 68 2.7 SE 9 11 5 6 1019.1 1018.2 0.0
21/08:30pm 13.0 11.0 6.4 64 3.2 SSE 6 7 3 4 1019.0 1018.1 0.0
21/08:00pm 13.5 11.5 6.1 61 3.6 SSE 6 7 3 4 1018.7 1017.8 0.0
21/07:30pm 15.0 12.4 6.0 55 4.4 SE 9 13 5 7 1018.6 1017.6 0.0
21/07:00pm 16.7 14.5 5.3 47 5.5 S 6 7 3 4 1018.2 1017.2 0.0
21/06:30pm 17.7 15.7 6.3 47 5.7 S 6 11 3 6 1017.9 1016.9 0.0
21/06:00pm 18.9 16.2 5.4 41 6.6 SSE 9 11 5 6 1017.4 1016.4 0.0
21/05:30pm 20.1 17.4 5.7 39 7.2 SSE 9 13 5 7 1017.1 1016.1 0.0
21/05:00pm 21.5 18.7 5.0 34 8.2 SSE 9 17 5 9 1016.9 1015.9 0.0
21/04:30pm 21.8 18.5 4.4 32 8.6 SSE 11 15 6 8 1016.5 1015.6 0.0
21/04:00pm 22.6 19.7 4.6 31 9.0 SSW 9 17 5 9 1016.4 1015.5 0.0
21/03:30pm 21.9 18.8 3.6 30 8.9 SW 9 17 5 9 1016.5 1015.6 0.0
21/03:00pm 22.3 19.6 5.7 34 8.4 SW 9 15 5 8 1016.8 1015.8 0.0
21/02:30pm 21.4 18.6 5.3 35 8.1 SW 9 19 5 10 1017.1 1016.1 0.0
21/02:00pm 20.5 17.6 4.5 35 7.8 S 9 19 5 10 1017.4 1016.4 0.0
21/01:30pm 20.0 16.9 3.7 34 7.8 SSE 9 15 5 8 1017.7 1016.7 0.0
21/01:00pm 19.2 16.1 3.8 36 7.4 SSE 9 19 5 10 1018.2 1017.2 0.0
21/12:30pm 18.6 15.4 3.3 36 7.2 SSW 9 17 5 9 1018.9 1018.0 0.0
21/12:00pm 18.1 15.6 5.0 42 6.4 S 7 15 4 8 1019.5 1018.6 0.0
21/11:30am 17.5 15.1 5.1 44 6.0 SSE 7 15 4 8 1020.1 1019.2 0.0
21/11:00am 16.3 13.1 5.0 47 5.4 SE 11 19 6 10 1020.8 1019.9 0.0
21/10:30am 15.5 11.9 5.1 50 5.0 SSE 13 19 7 10 1021.2 1020.3 0.0
21/10:00am 14.9 10.7 5.7 54 4.4 SE 17 22 9 12 1021.5 1020.5 0.0
21/09:30am 13.9 10.1 5.8 58 3.9 SSE 15 22 8 12 1021.8 1020.8 0.0
21/09:00am 13.0 9.1 5.4 60 3.6 SSE 15 24 8 13 1021.8 1020.8 2.2
21/08:30am 12.3 8.9 6.1 66 2.9 SE 13 17 7 9 1021.7 1020.7 2.2
21/08:00am 10.9 6.7 5.7 70 2.4 SSE 17 24 9 13 1021.3 1020.4 2.2
21/07:30am 9.4 5.8 4.8 73 2.1 SSE 13 19 7 10 1021.0 1020.1 2.2
21/07:00am 8.0 4.7 4.4 78 1.6 SSE 11 15 6 8 1020.7 1019.8 2.2
21/06:30am 8.1 4.3 4.1 76 1.8 SSE 13 17 7 9 1020.5 1019.6 2.2
21/06:00am 7.9 4.2 4.3 78 1.6 SSE 13 17 7 9 1020.3 1019.4 2.2
21/05:30am 6.8 3.5 4.5 85 1.0 SSE 11 13 6 7 1020.2 1019.3 2.2
21/05:00am 6.2 3.3 4.7 90 0.7 SSE 9 9 5 5 1020.2 1019.3 2.2
21/04:30am 5.8 3.2 4.4 91 0.6 SE 7 7 4 4 1020.0 1019.1 2.2
21/04:00am 6.3 3.9 5.1 92 0.5 SE 7 7 4 4 1019.5 1018.6 2.2
21/03:30am 7.2 4.9 5.8 91 0.6 SSE 7 9 4 5 1019.5 1018.6 2.2
21/03:00am 7.7 6.1 6.2 90 0.7 S 4 6 2 3 1019.5 1018.6 2.2
21/02:30am 8.3 6.8 6.6 89 0.8 SSE 4 6 2 3 1019.6 1018.7 2.2
21/02:00am 8.7 6.8 6.8 88 0.9 SE 6 6 3 3 1020.0 1019.1 2.2
21/01:00am 10.9 9.2 7.4 79 1.7 S 6 7 3 4 1020.7 1019.8 2.2
21/12:30am 11.4 9.5 7.7 78 1.8 S 7 9 4 5 1021.1 1020.2 2.2
21/12:00am 11.7 10.0 8.2 79 1.7 S 7 9 4 5 1021.6 1020.6 2.2
 
Date/Time
EST
Temp
°C
App
Temp
°C
Dew
Point
Rel
Hum
%
Delta-T
°C
Wind Press
QNH
hPa
Press
MSL
hPa
Rain
since 9 am
mm
Dir
 
Spd
km/h
Gust
km/h
Spd
kts
Gust
kts
20/11:30pm 12.4 10.4 8.5 77 2.0 SSE 9 11 5 6 1021.7 1020.7 2.2
20/11:00pm 12.6 10.6 8.7 77 2.0 SSE 9 11 5 6 1021.7 1020.7 2.2
20/10:30pm 13.0 11.3 8.5 74 2.3 S 7 9 4 5 1021.6 1020.6 2.2
20/10:00pm 13.1 11.1 8.6 74 2.3 SSE 9 13 5 7 1021.5 1020.5 2.2
20/09:30pm 14.0 11.8 9.2 73 2.5 SSE 11 17 6 9 1021.6 1020.6 2.2
20/09:00pm 14.0 11.4 9.2 73 2.5 SSE 13 19 7 10 1021.3 1020.4 2.2
20/08:30pm 14.1 12.0 9.7 75 2.3 SSE 11 15 6 8 1021.3 1020.4 2.2
20/08:00pm 14.6 13.0 10.2 75 2.3 SSE 9 13 5 7 1021.2 1020.3 2.2
20/07:30pm 14.7 13.1 10.3 75 2.3 SE 9 13 5 7 1021.0 1020.1 2.2
20/07:00pm 14.8 13.0 10.8 77 2.1 SSE 11 15 6 8 1020.6 1019.7 2.2
20/06:30pm 15.2 13.6 11.6 79 2.0 SE 11 13 6 7 1020.0 1019.1 2.2
20/06:00pm 15.5 14.6 11.3 76 2.3 SSE 7 9 4 5 1020.0 1019.1 2.2
20/05:30pm 15.9 14.2 11.1 73 2.6 SSE 11 19 6 10 1020.1 1019.2 2.2
20/05:00pm 16.0 15.0 12.2 78 2.1 SSE 9 15 5 8 1019.9 1019.0 2.2
20/04:30pm 16.3 14.4 11.7 74 2.5 S 13 19 7 10 1019.5 1018.6 2.2
20/04:00pm 15.9 14.4 13.2 84 1.5 SSE 13 17 7 9 1019.1 1018.2 2.2
20/03:30pm 15.8 14.4 13.3 85 1.4 SE 13 17 7 9 1018.8 1017.9 2.2
20/03:00pm 15.7 14.9 13.0 84 1.5 S 9 17 5 9 1019.8 1018.9 2.2
20/02:30pm 15.6 13.7 13.1 85 1.4 SE 15 20 8 11 1018.7 1017.8 2.2
20/02:00pm 15.2 13.1 12.3 83 1.6 S 15 20 8 11 1019.8 1018.9 2.2
20/01:30pm 15.4 13.0 12.7 84 1.5 SE 17 20 9 11 1019.4 1018.5 2.2
20/01:00pm 15.0 12.0 12.0 82 1.6 S 19 28 10 15 1019.7 1018.8 2.0
20/12:30pm 15.7 14.2 13.2 85 1.4 S 13 20 7 11 1020.7 1019.8 1.8
20/12:00pm 16.2 14.8 13.5 84 1.5 SSW 13 22 7 12 1021.1 1020.2 1.4
20/11:30am 16.3 14.4 13.0 81 1.9 S 15 24 8 13 1021.0 1020.1 1.4
20/11:00am 16.2 14.7 14.2 88 1.1 S 15 24 8 13 1020.8 1019.9 1.4
20/10:30am 16.6 15.5 14.2 86 1.4 S 13 20 7 11 1021.6 1020.6 1.2
20/10:00am 16.6 15.2 14.6 88 1.2 S 15 24 8 13 1021.8 1020.8 1.2
20/09:30am 16.8 16.6 15.7 93 0.7 S 11 20 6 11 1021.9 1020.9 0.8
20/09:00am 16.8 16.5 15.5 92 0.8 SSE 11 15 6 8 1021.5 1020.5 2.2
20/08:30am 16.6 16.6 15.3 92 0.8 S 9 22 5 12 1021.7 1020.7 2.0
20/08:00am 16.5 15.7 15.2 92 0.8 S 13 19 7 10 1021.6 1020.6 1.8
20/07:30am 16.3 15.8 14.8 91 0.9 S 11 19 6 10 1021.0 1020.1 1.6
20/07:00am 16.3 15.3 14.7 90 0.9 S 13 22 7 12 1020.8 1019.9 1.4
20/06:30am 16.4 14.7 14.6 89 1.0 S 17 26 9 14 1020.3 1019.4 0.8
20/06:00am 17.0 15.5 15.3 90 1.0 S 17 32 9 17 1020.2 1019.3 0.4
20/05:30am 17.8 16.9 15.8 88 1.2 S 15 24 8 13 1019.9 1019.0 0.0
20/05:00am 18.4 17.9 15.8 85 1.5 S 13 24 7 13 1019.5 1018.6 0.0
20/04:30am 18.8 18.5 15.5 81 2.0 S 11 17 6 9 1019.2 1018.3 0.0
20/04:00am 19.1 18.8 15.4 79 2.2 S 11 19 6 10 1019.3 1018.4 0.0
20/03:30am 19.2 18.2 15.5 79 2.2 SSE 15 22 8 12 1019.3 1018.4 0.0
20/03:00am 19.3 18.2 15.4 78 2.3 SSE 15 26 8 14 1019.5 1018.6 0.0
20/02:30am 19.4 17.9 15.3 77 2.4 SSE 17 24 9 13 1019.6 1018.7 0.0
20/02:00am 19.7 17.9 15.4 76 2.6 S 19 32 10 17 1019.4 1018.5 0.0
20/01:30am 20.1 18.8 15.9 77 2.5 S 17 28 9 15 1019.7 1018.8 0.0
20/01:00am 20.3 19.2 16.3 78 2.4 S 17 26 9 14 1019.4 1018.5 0.0
20/12:30am 20.6 19.0 16.4 77 2.6 S 20 33 11 18 1019.6 1018.7 0.0
20/12:00am 21.0 20.2 17.2 79 2.3 SSE 17 26 9 14 1019.5 1018.6 0.0
 
Date/Time
EST
Temp
°C
App
Temp
°C
Dew
Point
Rel
Hum
%
Delta-T
°C
Wind Press
QNH
hPa
Press
MSL
hPa
Rain
since 9 am
mm
Dir
 
Spd
km/h
Gust
km/h
Spd
kts
Gust
kts
19/11:30pm 21.6 21.1 16.8 74 3.0 S 15 22 8 12 1019.4 1018.5 0.0
19/11:00pm 21.8 21.0 17.2 75 2.8 SSE 17 26 9 14 1019.6 1018.7 0.0
19/10:30pm 21.8 21.1 17.4 76 2.7 S 17 26 9 14 1019.7 1018.8 0.0
19/10:00pm 21.9 21.2 17.3 75 2.8 S 17 24 9 13 1019.5 1018.6 0.0
19/09:30pm 21.9 21.9 17.3 75 2.9 S 13 20 7 11 1019.5 1018.6 0.0
19/09:00pm 22.1 21.3 17.0 73 3.1 S 17 28 9 15 1019.3 1018.4 0.0
19/08:30pm 22.3 22.3 17.2 73 3.2 S 13 26 7 14 1019.4 1018.5 0.0
19/08:00pm 22.5 22.1 17.2 72 3.3 S 15 24 8 13 1019.1 1018.2 0.0
19/07:30pm 22.8 22.5 16.4 67 3.9 SSE 13 20 7 11 1019.0 1018.1 0.0
19/07:00pm 23.1 23.1 17.1 69 3.7 S 13 20 7 11 1018.2 1017.2 0.0
19/06:30pm 23.4 23.5 17.4 69 3.8 S 13 20 7 11 1017.7 1016.7 0.0
19/06:00pm 23.6 23.8 17.6 69 3.8 S 13 20 7 11 1017.5 1016.5 0.0
19/05:30pm 24.0 25.3 17.5 67 4.1 S 7 11 4 6 1017.9 1016.9 0.0
19/05:00pm 24.2 24.8 17.7 67 4.1 S 11 17 6 9 1017.4 1016.4 0.0
19/04:30pm 25.2 25.3 17.4 62 4.9 SSW 13 20 7 11 1017.2 1016.2 0.0
19/04:00pm 25.1 25.3 17.6 63 4.7 SW 13 20 7 11 1017.4 1016.4 0.0
19/03:30pm 25.4 24.4 17.6 62 4.9 SW 19 33 10 18 1017.1 1016.1 0.0
19/03:00pm 26.8 27.0 17.6 57 5.8 SW 13 26 7 14 1016.8 1015.8 0.0
19/02:30pm 27.8 28.4 16.7 50 7.0 SW 9 15 5 8 1016.9 1015.9 0.0
19/02:00pm 27.2 28.5 17.1 54 6.4 WSW 6 11 3 6 1017.1 1016.1 0.0
19/01:30pm 27.3 28.8 16.6 52 6.7 WSW 4 9 2 5 1017.4 1016.4 0.0
19/01:00pm 27.2 28.4 16.8 53 6.5 WSW 6 11 3 6 1017.7 1016.7 0.0
19/12:30pm 27.0 28.7 17.2 55 6.2 W 4 9 2 5 1018.3 1017.3 0.0
19/12:00pm 27.6 29.1 17.7 54 6.3 NW 6 9 3 5 1018.9 1018.0 0.0
19/11:30am 26.4 27.6 16.9 56 6.0 NW 6 13 3 7 1019.4 1018.5 0.0
19/11:00am 26.6 28.3 17.1 56 6.0 SSE 4 7 2 4 1019.9 1019.0 0.0
19/10:30am 25.2 26.4 16.9 60 5.2 NW 6 9 3 5 1020.2 1019.3 0.0
19/10:00am 25.0 26.3 17.5 63 4.7 SW 7 13 4 7 1020.4 1019.5 0.0
19/09:30am 24.2 25.7 17.7 67 4.1 SW 6 9 3 5 1020.6 1019.7 0.0
19/09:00am 23.9 26.3 17.9 69 3.8 ESE 2 4 1 2 1020.5 1019.6 0.2
19/08:30am 21.9 24.0 18.1 79 2.4 SSE 4 7 2 4 1020.2 1019.3 0.2
19/08:00am 20.2 21.7 17.6 85 1.6 S 6 7 3 4 1019.8 1018.9 0.2
19/07:30am 18.2 20.1 16.7 91 0.9 S 2 4 1 2 1019.5 1018.6 0.2
19/07:00am 18.6 20.4 17.4 93 0.7 SSE 4 6 2 3 1019.3 1018.4 0.2
19/06:30am 18.4 19.6 17.4 94 0.6 SE 7 7 4 4 1018.6 1017.6 0.2
19/06:00am 17.8 18.9 16.5 92 0.8 SSE 6 6 3 3 1018.5 1017.5 0.2
19/05:30am 17.5 19.0 15.7 89 1.1 S 2 4 1 2 1018.2 1017.2 0.2
19/05:00am 18.3 19.7 16.5 89 1.1 SSE 4 4 2 2 1018.0 1017.0 0.2
19/04:30am 18.8 20.4 16.9 89 1.2 SE 4 4 2 2 1017.5 1016.5 0.2
19/04:00am 18.5 19.8 16.1 86 1.4 S 4 4 2 2 1017.9 1016.9 0.2
19/03:30am 18.7 20.0 16.1 85 1.6 SSE 4 6 2 3 1017.9 1016.9 0.2
19/03:00am 19.0 20.8 16.4 85 1.6 SSW 2 4 1 2 1018.1 1017.1 0.2
19/02:30am 19.2 20.8 16.8 86 1.5 SSE 4 6 2 3 1018.1 1017.1 0.2
19/02:00am 18.9 20.3 16.5 86 1.5 SE 4 6 2 3 1018.3 1017.3 0.2
19/01:30am 18.9 20.9 16.0 83 1.7 CALM 0 4 0 2 1018.5 1017.5 0.2
19/01:00am 19.4 21.6 16.6 84 1.7 CALM 0 0 0 0 1018.9 1018.0 0.2
19/12:30am 18.8 20.8 16.0 84 1.7 CALM 0 0 0 0 1019.1 1018.2 0.2
19/12:00am 19.1 20.3 16.0 82 1.9 ESE 4 6 2 3 1019.1 1018.2 0.2
 
Date/Time
EST
Temp
°C
App
Temp
°C
Dew
Point
Rel
Hum
%
Delta-T
°C
Wind Press
QNH
hPa
Press
MSL
hPa
Rain
since 9 am
mm
Dir
 
Spd
km/h
Gust
km/h
Spd
kts
Gust
kts
18/11:30pm 20.3 21.7 16.5 79 2.3 E 4 4 2 2 1019.3 1018.4 0.2

Other Formats:

Comma delimited format used in spreadsheet applications
http://www.bom.gov.au/fwo/IDQ60801/IDQ60801.94396.axf

JavaScript Object Notation format (JSON) in row-major order
http://www.bom.gov.au/fwo/IDQ60801/IDQ60801.94396.json